Time;durP1;ratioP1;P1;durP2;ratioP2;P2;SDS_P1;SDS_P2;PMS_P1;PMS_P2;Temp;Humidity;BMP_temperature;BMP_pressure;BME280_temperature;BME280_humidity;BME280_pressure;Samples;Min_cycle;Max_cycle;Signal;HPM_P1;HPM_P2
2023/04/18 00:00:12;;;;;;;17.05;9.68;;;;;;;;;;4847699;29;20033;-79
2023/04/18 00:02:38;;;;;;;15.40;9.40;;;;;;;;;;4819747;29;20408;-79
2023/04/18 00:05:06;;;;;;;13.35;8.75;;;;;;;;;;4834590;29;20043;-80
2023/04/18 00:07:35;;;;;;;15.75;9.05;;;;;;;;;;4814924;29;20184;-80
2023/04/18 00:10:04;;;;;;;14.68;9.43;;;;;;;;;;4844635;29;20029;-79
2023/04/18 00:12:30;;;;;;;12.23;8.50;;;;;;;;;;4834650;29;20040;-78
2023/04/18 00:14:57;;;;;;;17.15;9.13;;;;;;;;;;4834888;29;20074;-78
2023/04/18 00:17:26;;;;;;;15.43;9.75;;;;;;;;;;4832002;29;20484;-78
2023/04/18 00:19:52;;;;;;;13.23;8.70;;;;;;;;;;4844675;29;20057;-78
2023/04/18 00:22:21;;;;;;;16.38;9.18;;;;;;;;;;4833740;29;20026;-78
2023/04/18 00:24:53;;;;;;;13.35;8.82;;;;;;;;;;4834457;29;20193;-78
2023/04/18 00:27:19;;;;;;;14.73;9.48;;;;;;;;;;4846358;29;20056;-78
2023/04/18 00:29:46;;;;;;;13.20;8.23;;;;;;;;;;4848871;29;20033;-78
2023/04/18 00:32:12;;;;;;;18.25;8.48;;;;;;;;;;4837776;29;20064;-79
2023/04/18 00:34:39;;;;;;;17.33;9.02;;;;;;;;;;4834122;29;20057;-78
2023/04/18 00:37:05;;;;;;;14.82;8.93;;;;;;;;;;4850996;29;20029;-78
2023/04/18 00:39:31;;;;;;;14.05;9.18;;;;;;;;;;4839304;29;20060;-78
2023/04/18 00:41:57;;;;;;;14.00;9.40;;;;;;;;;;4837849;29;20467;-78
2023/04/18 00:44:23;;;;;;;12.82;9.82;;;;;;;;;;4836664;29;20518;-79
2023/04/18 00:46:50;;;;;;;15.73;8.35;;;;;;;;;;4847657;29;20044;-78
2023/04/18 00:49:16;;;;;;;14.43;8.35;;;;;;;;;;4848713;29;20056;-78
2023/04/18 00:51:42;;;;;;;15.63;9.25;;;;;;;;;;4837421;29;20030;-78
2023/04/18 00:54:11;;;;;;;17.52;9.60;;;;;;;;;;4838889;29;20395;-78
2023/04/18 00:56:38;;;;;;;17.42;8.93;;;;;;;;;;4836536;29;20403;-78
2023/04/18 00:59:05;;;;;;;14.70;8.82;;;;;;;;;;4846739;29;20057;-78
2023/04/18 01:01:32;;;;;;;15.50;8.90;;;;;;;;;;4837879;29;20090;-78
2023/04/18 01:03:58;;;;;;;14.13;8.77;;;;;;;;;;4836551;29;20040;-78
2023/04/18 01:06:25;;;;;;;12.65;9.65;;;;;;;;;;4835233;29;20129;-79
2023/04/18 01:08:52;;;;;;;17.38;9.63;;;;;;;;;;4848566;29;20109;-79
2023/04/18 01:11:19;;;;;;;19.40;8.60;;;;;;;;;;4838679;29;20030;-79
2023/04/18 01:14:04;;;;;;;11.27;8.80;;;;;;;;;;4837326;29;20030;-79
2023/04/18 01:16:35;;;;;;;13.68;8.93;;;;;;;;;;4850883;29;20124;-78
2023/04/18 01:19:02;;;;;;;12.50;8.13;;;;;;;;;;4837000;29;20136;-78
2023/04/18 01:21:42;;;;;;;17.83;9.55;;;;;;;;;;4846848;29;20073;-78
2023/04/18 01:24:15;;;;;;;20.40;9.15;;;;;;;;;;4835238;29;22264;-78
2023/04/18 01:26:44;;;;;;;13.52;9.85;;;;;;;;;;4838204;29;20026;-77
2023/04/18 01:29:11;;;;;;;15.20;9.82;;;;;;;;;;4836276;29;20155;-78
2023/04/18 01:31:37;;;;;;;17.70;10.80;;;;;;;;;;4833276;29;20406;-79
2023/04/18 01:34:04;;;;;;;15.20;10.10;;;;;;;;;;4848519;29;20061;-78
2023/04/18 01:36:30;;;;;;;16.13;9.68;;;;;;;;;;4849768;29;20185;-78
2023/04/18 01:38:57;;;;;;;17.02;10.02;;;;;;;;;;4836010;29;20045;-78
2023/04/18 01:41:23;;;;;;;16.92;9.70;;;;;;;;;;4848527;29;20022;-78
2023/04/18 01:43:49;;;;;;;13.23;9.25;;;;;;;;;;4836813;29;20436;-78
2023/04/18 01:46:15;;;;;;;13.50;9.40;;;;;;;;;;4837731;29;20037;-78
2023/04/18 01:48:41;;;;;;;14.02;9.60;;;;;;;;;;4837050;29;20057;-78
2023/04/18 01:51:07;;;;;;;15.90;8.77;;;;;;;;;;4850351;29;20053;-79
2023/04/18 01:53:34;;;;;;;20.42;9.70;;;;;;;;;;4846172;29;20032;-79
2023/04/18 01:56:00;;;;;;;14.75;9.50;;;;;;;;;;4836905;29;20034;-79
2023/04/18 01:58:26;;;;;;;14.25;9.82;;;;;;;;;;4834995;29;20795;-78
2023/04/18 02:00:53;;;;;;;12.63;9.73;;;;;;;;;;4834828;29;20026;-79
2023/04/18 02:03:19;;;;;;;15.95;8.98;;;;;;;;;;4834386;29;20500;-79
2023/04/18 02:05:45;;;;;;;17.27;9.85;;;;;;;;;;4838444;29;20041;-79
2023/04/18 02:08:12;;;;;;;14.38;9.88;;;;;;;;;;4846260;29;20037;-79
2023/04/18 02:10:38;;;;;;;13.80;9.10;;;;;;;;;;4846039;29;20040;-79
2023/04/18 02:13:05;;;;;;;13.07;9.52;;;;;;;;;;4836835;29;20744;-79
2023/04/18 02:15:31;;;;;;;11.73;9.00;;;;;;;;;;4847323;29;20026;-79
2023/04/18 02:18:00;;;;;;;13.18;8.85;;;;;;;;;;4821230;29;20088;-78
2023/04/18 02:20:30;;;;;;;11.82;8.68;;;;;;;;;;4836406;29;20659;-78
2023/04/18 02:23:03;;;;;;;19.45;10.27;;;;;;;;;;4836176;29;20034;-78
2023/04/18 02:25:29;;;;;;;17.48;8.93;;;;;;;;;;4836904;29;20474;-79
2023/04/18 02:27:56;;;;;;;12.65;8.48;;;;;;;;;;4835463;29;20696;-79
2023/04/18 02:30:23;;;;;;;11.23;8.63;;;;;;;;;;4836388;29;20037;-79
2023/04/18 02:32:52;;;;;;;11.40;8.35;;;;;;;;;;4849714;29;20044;-79
2023/04/18 02:35:19;;;;;;;11.23;7.88;;;;;;;;;;4845051;29;20034;-79
2023/04/18 02:37:45;;;;;;;10.80;8.02;;;;;;;;;;4832136;29;20166;-79
2023/04/18 02:40:12;;;;;;;11.48;7.75;;;;;;;;;;4845504;29;20049;-80
2023/04/18 02:42:40;;;;;;;11.75;7.80;;;;;;;;;;4837579;29;20080;-78
2023/04/18 02:45:07;;;;;;;14.18;7.43;;;;;;;;;;4816051;29;20070;-78
2023/04/18 02:47:33;;;;;;;15.43;7.82;;;;;;;;;;4816938;29;20444;-78
2023/04/18 02:49:59;;;;;;;10.55;7.93;;;;;;;;;;4829895;29;20117;-78
2023/04/18 02:52:25;;;;;;;13.52;8.00;;;;;;;;;;4829674;29;20058;-78
2023/04/18 02:54:51;;;;;;;10.50;8.13;;;;;;;;;;4844767;29;20026;-78
2023/04/18 02:57:18;;;;;;;10.85;7.63;;;;;;;;;;4826161;29;20087;-78
2023/04/18 02:59:44;;;;;;;10.18;7.57;;;;;;;;;;4827190;29;20065;-78
2023/04/18 03:02:10;;;;;;;12.73;7.93;;;;;;;;;;4826926;29;20038;-79
2023/04/18 03:04:36;;;;;;;13.07;6.82;;;;;;;;;;4816530;29;20445;-78
2023/04/18 03:07:02;;;;;;;10.05;7.30;;;;;;;;;;4832012;29;20030;-79
2023/04/18 03:09:28;;;;;;;11.02;7.50;;;;;;;;;;4828960;29;20124;-79
2023/04/18 03:11:54;;;;;;;10.20;7.13;;;;;;;;;;4830905;29;20644;-78
2023/04/18 03:14:20;;;;;;;12.48;6.90;;;;;;;;;;4825388;29;20078;-78
2023/04/18 03:16:46;;;;;;;9.00;6.78;;;;;;;;;;4829054;29;20042;-78
2023/04/18 03:19:12;;;;;;;9.25;6.70;;;;;;;;;;4831467;29;20445;-78
2023/04/18 03:21:39;;;;;;;7.78;6.10;;;;;;;;;;4831848;29;20490;-78
2023/04/18 03:24:05;;;;;;;13.65;7.35;;;;;;;;;;4830363;29;20046;-79
2023/04/18 03:26:31;;;;;;;12.85;6.65;;;;;;;;;;4842294;29;20154;-79
2023/04/18 03:28:57;;;;;;;10.88;6.53;;;;;;;;;;4827452;29;20030;-78
2023/04/18 03:31:23;;;;;;;8.07;6.03;;;;;;;;;;4827912;29;20392;-79
2023/04/18 03:33:50;;;;;;;7.70;5.70;;;;;;;;;;4830595;29;20557;-78
2023/04/18 03:36:17;;;;;;;10.02;6.65;;;;;;;;;;4828630;29;20041;-79
2023/04/18 03:38:43;;;;;;;10.85;6.38;;;;;;;;;;4829803;29;20030;-78
2023/04/18 03:41:09;;;;;;;13.05;7.85;;;;;;;;;;4827419;29;20034;-79
2023/04/18 03:43:40;;;;;;;7.88;5.45;;;;;;;;;;4842838;29;20487;-79
2023/04/18 03:46:06;;;;;;;8.10;5.65;;;;;;;;;;4818558;29;23123;-79
2023/04/18 03:48:35;;;;;;;9.85;6.47;;;;;;;;;;4830959;29;20472;-79
2023/04/18 03:51:02;;;;;;;10.23;5.78;;;;;;;;;;4820754;29;20038;-79
2023/04/18 03:53:28;;;;;;;10.18;6.68;;;;;;;;;;4835360;29;20033;-79
2023/04/18 03:55:54;;;;;;;10.75;5.57;;;;;;;;;;4834798;29;20461;-79
2023/04/18 03:58:22;;;;;;;7.95;5.72;;;;;;;;;;4845714;29;20387;-80
2023/04/18 04:00:49;;;;;;;11.68;6.22;;;;;;;;;;4845125;29;20026;-78
2023/04/18 04:03:15;;;;;;;8.43;6.20;;;;;;;;;;4834008;29;20400;-79
2023/04/18 04:05:41;;;;;;;8.88;6.40;;;;;;;;;;4821580;29;20097;-79
2023/04/18 04:08:07;;;;;;;10.02;6.43;;;;;;;;;;4845930;29;20045;-80
2023/04/18 04:10:33;;;;;;;10.93;6.80;;;;;;;;;;4819278;29;20089;-81
2023/04/18 04:12:59;;;;;;;8.48;6.45;;;;;;;;;;4833506;29;20053;-78
2023/04/18 04:15:25;;;;;;;10.32;6.03;;;;;;;;;;4833827;29;20438;-79
2023/04/18 04:17:51;;;;;;;9.75;6.55;;;;;;;;;;4831639;29;20038;-78
2023/04/18 04:20:22;;;;;;;9.52;6.47;;;;;;;;;;4846713;29;20041;-79
2023/04/18 04:22:52;;;;;;;7.70;5.65;;;;;;;;;;4844781;29;20030;-78
2023/04/18 04:25:19;;;;;;;8.80;6.00;;;;;;;;;;4847384;29;20042;-79
2023/04/18 04:27:45;;;;;;;9.82;6.25;;;;;;;;;;4845383;29;20109;-78
2023/04/18 04:30:11;;;;;;;9.15;6.05;;;;;;;;;;4842557;29;20030;-80
2023/04/18 04:32:37;;;;;;;10.23;6.60;;;;;;;;;;4830117;29;20117;-75
2023/04/18 04:35:04;;;;;;;8.65;5.75;;;;;;;;;;4829589;29;20392;-76
2023/04/18 04:37:32;;;;;;;6.95;5.55;;;;;;;;;;4813605;29;20130;-78
2023/04/18 04:39:59;;;;;;;11.52;6.45;;;;;;;;;;4843088;29;20041;-78
2023/04/18 04:42:27;;;;;;;8.65;5.40;;;;;;;;;;4830744;29;20045;-78
2023/04/18 04:44:56;;;;;;;9.90;5.72;;;;;;;;;;4827502;29;20126;-77
2023/04/18 04:47:22;;;;;;;15.82;8.93;;;;;;;;;;4852167;29;20085;-79
2023/04/18 04:49:48;;;;;;;18.30;11.13;;;;;;;;;;4846776;29;20065;-80
2023/04/18 04:52:14;;;;;;;8.70;5.68;;;;;;;;;;4803399;29;20534;-77
2023/04/18 04:54:44;;;;;;;8.30;6.15;;;;;;;;;;4797895;29;20389;-78
2023/04/18 04:57:10;;;;;;;10.88;6.10;;;;;;;;;;4805578;29;20073;-79
2023/04/18 04:59:37;;;;;;;8.27;6.07;;;;;;;;;;4802196;29;20046;-78
2023/04/18 05:02:03;;;;;;;8.05;5.35;;;;;;;;;;4798301;29;20038;-79
2023/04/18 05:04:32;;;;;;;7.88;5.32;;;;;;;;;;4801515;29;20428;-78
2023/04/18 05:07:00;;;;;;;10.60;5.68;;;;;;;;;;4801781;29;20152;-77
2023/04/18 05:09:26;;;;;;;8.63;5.45;;;;;;;;;;4807850;29;20087;-80
2023/04/18 05:11:52;;;;;;;11.80;6.35;;;;;;;;;;4795872;29;20046;-78
2023/04/18 05:14:24;;;;;;;7.15;5.38;;;;;;;;;;4796116;29;20053;-75
2023/04/18 05:16:51;;;;;;;10.32;5.55;;;;;;;;;;4794882;29;20050;-77
2023/04/18 05:19:32;;;;;;;10.77;6.07;;;;;;;;;;4797671;29;20040;-77
2023/04/18 05:22:11;;;;;;;9.40;6.22;;;;;;;;;;4812414;29;20065;-77
2023/04/18 05:25:00;;;;;;;10.73;5.63;;;;;;;;;;4846559;29;20028;-78
2023/04/18 05:27:26;;;;;;;7.35;5.50;;;;;;;;;;4835770;29;20183;-78
2023/04/18 05:29:53;;;;;;;8.45;6.53;;;;;;;;;;4834819;29;20064;-76
2023/04/18 05:32:19;;;;;;;6.93;5.63;;;;;;;;;;4832801;29;20037;-76
2023/04/18 05:34:47;;;;;;;8.60;5.68;;;;;;;;;;4836758;29;20040;-75
2023/04/18 05:37:13;;;;;;;8.60;6.57;;;;;;;;;;4835005;29;20038;-77
2023/04/18 05:39:40;;;;;;;10.38;6.18;;;;;;;;;;4834199;29;20056;-77
2023/04/18 05:42:06;;;;;;;9.15;5.85;;;;;;;;;;4849767;29;20044;-76
2023/04/18 05:44:32;;;;;;;9.43;6.15;;;;;;;;;;4848100;29;20054;-74
2023/04/18 05:46:58;;;;;;;11.13;6.88;;;;;;;;;;4817280;29;20045;-78
2023/04/18 05:49:24;;;;;;;11.63;7.28;;;;;;;;;;4837948;29;20513;-77
2023/04/18 05:51:57;;;;;;;9.25;5.70;;;;;;;;;;4841385;29;20030;-76
2023/04/18 05:54:26;;;;;;;;;;;;;;;;;;4838465;29;20485;-79
2023/04/18 05:56:52;;;;;;;10.82;7.30;;;;;;;;;;4844375;29;19912;-77
2023/04/18 05:59:19;;;;;;;10.65;6.10;;;;;;;;;;4820487;29;20448;-77
2023/04/18 06:01:51;;;;;;;7.43;5.85;;;;;;;;;;4857487;29;20033;-80
2023/04/18 06:04:47;;;;;;;8.57;6.00;;;;;;;;;;4839650;29;20064;-82
2023/04/18 06:07:13;;;;;;;14.23;6.82;;;;;;;;;;4835581;29;20045;-85
2023/04/18 06:09:39;;;;;;;9.30;5.78;;;;;;;;;;4847242;29;20033;-83
2023/04/18 06:14:57;;;;;;;10.27;6.65;;;;;;;;;;4803411;29;20185;-83
2023/04/18 06:17:33;;;;;;;7.75;6.40;;;;;;;;;;4839806;29;20121;-80
2023/04/18 06:20:24;;;;;;;15.38;5.78;;;;;;;;;;4845658;29;20040;-81
2023/04/18 06:23:02;;;;;;;9.32;6.00;;;;;;;;;;4838040;29;20056;-79
2023/04/18 06:35:30;;;;;;;9.75;7.10;;;;;;;;;;4835166;29;20121;-79
2023/04/18 06:41:13;;;;;;;12.02;7.35;;;;;;;;;;4847852;29;20045;-80
2023/04/18 06:52:46;;;;;;;11.88;6.90;;;;;;;;;;5464582;23;20065;-82
2023/04/18 06:55:29;;;;;;;11.38;7.47;;;;;;;;;;4869553;29;20049;-83
2023/04/18 06:57:55;;;;;;;11.55;7.60;;;;;;;;;;4852972;29;20607;-80
2023/04/18 07:00:21;;;;;;;18.08;8.52;;;;;;;;;;4840432;29;20040;-82
2023/04/18 07:02:48;;;;;;;14.52;8.02;;;;;;;;;;4857527;29;20489;-83
2023/04/18 07:05:19;;;;;;;13.77;6.72;;;;;;;;;;4863139;29;20101;-84
2023/04/18 07:10:13;;;;;;;9.13;6.63;;;;;;;;;;4963442;23;20061;-83
2023/04/18 07:12:39;;;;;;;15.23;6.82;;;;;;;;;;4878631;24;20050;-85
2023/04/18 07:15:06;;;;;;;12.25;6.53;;;;;;;;;;4868074;29;20026;-83
2023/04/18 07:17:32;;;;;;;10.23;6.53;;;;;;;;;;4843679;29;20063;-86
2023/04/18 07:20:04;;;;;;;9.38;5.47;;;;;;;;;;4860418;29;20036;-81
2023/04/18 07:22:33;;;;;;;11.13;6.28;;;;;;;;;;4843736;29;20320;-81
2023/04/18 07:24:59;;;;;;;18.10;6.32;;;;;;;;;;4848269;29;20464;-78
2023/04/18 07:27:25;;;;;;;5.95;5.20;;;;;;;;;;4821465;29;20048;-78
2023/04/18 07:29:51;;;;;;;8.43;6.10;;;;;;;;;;4849096;29;20059;-77
2023/04/18 07:32:17;;;;;;;9.95;5.45;;;;;;;;;;4824306;29;20487;-77
2023/04/18 07:34:55;;;;;;;11.43;5.93;;;;;;;;;;4834297;29;20019;-77
2023/04/18 07:37:21;;;;;;;13.88;7.82;;;;;;;;;;4828730;29;20034;-76
2023/04/18 07:39:47;;;;;;;9.07;5.63;;;;;;;;;;4841868;29;20036;-76
2023/04/18 07:42:13;;;;;;;8.90;6.28;;;;;;;;;;4827910;29;20113;-76
2023/04/18 07:47:48;;;;;;;10.20;5.70;;;;;;;;;;4785593;29;20043;-76
2023/04/18 07:50:14;;;;;;;6.80;5.15;;;;;;;;;;4826308;29;20041;-76
2023/04/18 07:52:41;;;;;;;6.97;4.75;;;;;;;;;;4842349;29;20121;-76
2023/04/18 07:55:07;;;;;;;6.03;5.43;;;;;;;;;;4829102;29;20121;-76
2023/04/18 07:57:33;;;;;;;9.77;5.65;;;;;;;;;;4814704;29;20102;-75
2023/04/18 07:59:59;;;;;;;6.90;5.10;;;;;;;;;;4846549;29;20034;-78
2023/04/18 08:02:25;;;;;;;9.95;6.32;;;;;;;;;;4834228;29;20030;-78
2023/04/18 08:04:51;;;;;;;8.27;5.18;;;;;;;;;;4830150;29;20557;-76
2023/04/18 08:50:25;;;;;;;11.48;5.28;;;;;;;;;;4849787;29;20268;-76
2023/04/18 08:53:02;;;;;;;10.05;5.53;;;;;;;;;;4855328;29;20090;-74
2023/04/18 08:55:39;;;;;;;8.05;5.90;;;;;;;;;;4851036;29;20784;-80
2023/04/18 08:58:05;;;;;;;7.65;5.78;;;;;;;;;;4855184;29;20046;-82
2023/04/18 09:00:32;;;;;;;10.90;5.30;;;;;;;;;;4863389;29;20039;-79
2023/04/18 09:02:58;;;;;;;9.35;5.15;;;;;;;;;;4858130;29;20030;-75
2023/04/18 09:05:30;;;;;;;26.98;8.10;;;;;;;;;;4856066;29;20056;-80
2023/04/18 09:07:59;;;;;;;9.38;5.43;;;;;;;;;;4856176;29;20045;-76
2023/04/18 09:10:27;;;;;;;17.65;6.63;;;;;;;;;;4849969;29;20030;-76
2023/04/18 09:12:54;;;;;;;7.68;5.68;;;;;;;;;;4865674;29;20526;-77
2023/04/18 09:15:25;;;;;;;9.77;5.90;;;;;;;;;;4860385;29;20418;-76
2023/04/18 09:17:52;;;;;;;25.42;6.00;;;;;;;;;;4855278;29;20037;-77
2023/04/18 09:20:34;;;;;;;7.28;5.15;;;;;;;;;;4847648;29;20053;-76
2023/04/18 09:23:02;;;;;;;7.43;5.43;;;;;;;;;;4853586;29;20053;-75
2023/04/18 09:25:37;;;;;;;6.43;5.43;;;;;;;;;;4852985;29;20028;-80
2023/04/18 09:28:22;;;;;;;7.28;5.25;;;;;;;;;;4849312;29;20125;-82
2023/04/18 09:30:50;;;;;;;9.85;5.20;;;;;;;;;;4854791;29;20029;-75
2023/04/18 09:36:42;;;;;;;11.60;5.72;;;;;;;;;;4853589;29;20032;-75
2023/04/18 09:39:08;;;;;;;10.32;5.47;;;;;;;;;;4844580;29;20140;-74
2023/04/18 09:41:34;;;;;;;8.45;5.70;;;;;;;;;;4850437;29;20029;-74
2023/04/18 09:44:10;;;;;;;6.40;5.13;;;;;;;;;;4859302;29;20548;-75
2023/04/18 09:46:36;;;;;;;7.55;5.07;;;;;;;;;;4857433;29;20445;-78
2023/04/18 09:49:02;;;;;;;9.10;5.20;;;;;;;;;;4856829;29;20109;-75
2023/04/18 09:51:30;;;;;;;14.63;5.53;;;;;;;;;;4853035;29;20106;-79
2023/04/18 09:54:09;;;;;;;8.60;5.30;;;;;;;;;;4843601;29;20033;-78
2023/04/18 09:56:36;;;;;;;6.68;4.60;;;;;;;;;;4853292;29;20095;-79
2023/04/18 09:59:09;;;;;;;9.43;6.72;;;;;;;;;;4854404;29;20049;-76
2023/04/18 10:01:44;;;;;;;6.68;5.05;;;;;;;;;;4841695;29;20412;-77
2023/04/18 10:09:50;;;;;;;7.57;5.32;;;;;;;;;;5403336;23;20123;-80
2023/04/18 10:12:17;;;;;;;10.02;5.38;;;;;;;;;;4828790;29;20795;-76
2023/04/18 10:14:49;;;;;;;10.32;5.93;;;;;;;;;;4827806;29;20098;-78
2023/04/18 10:17:24;;;;;;;9.88;6.10;;;;;;;;;;4838944;29;20053;-79
2023/04/18 10:22:34;;;;;;;8.45;5.15;;;;;;;;;;4972619;23;20495;-79
2023/04/18 10:25:18;;;;;;;8.05;5.40;;;;;;;;;;4850210;29;20064;-77
2023/04/18 10:27:53;;;;;;;10.35;5.60;;;;;;;;;;4861588;29;20148;-79
2023/04/18 10:30:22;;;;;;;7.55;5.45;;;;;;;;;;4868898;29;20036;-78
2023/04/18 10:32:48;;;;;;;9.80;5.68;;;;;;;;;;4859310;29;20033;-77
2023/04/18 10:35:14;;;;;;;10.25;5.45;;;;;;;;;;4858332;29;20022;-78
2023/04/18 10:37:49;;;;;;;8.98;5.38;;;;;;;;;;4844089;29;20101;-77
2023/04/18 10:40:16;;;;;;;9.50;5.10;;;;;;;;;;4868050;29;20033;-77
2023/04/18 10:42:52;;;;;;;8.90;5.70;;;;;;;;;;4860934;29;20042;-78
2023/04/18 10:45:19;;;;;;;8.88;6.00;;;;;;;;;;4869893;29;20038;-77
2023/04/18 10:47:45;;;;;;;9.07;5.93;;;;;;;;;;4856020;29;20045;-81
2023/04/18 10:50:12;;;;;;;8.93;5.15;;;;;;;;;;4855308;29;20255;-79
2023/04/18 10:52:38;;;;;;;7.30;5.90;;;;;;;;;;4847080;29;20367;-81
2023/04/18 10:55:07;;;;;;;10.10;6.15;;;;;;;;;;4837628;29;20454;-79
2023/04/18 10:57:37;;;;;;;6.10;4.82;;;;;;;;;;4853803;29;20045;-80
2023/04/18 11:00:04;;;;;;;10.27;6.35;;;;;;;;;;4870435;29;20029;-78
2023/04/18 11:02:32;;;;;;;12.88;7.10;;;;;;;;;;4829579;29;20373;-79
2023/04/18 11:05:03;;;;;;;11.68;5.95;;;;;;;;;;4851292;29;20030;-78
2023/04/18 11:07:36;;;;;;;9.83;6.20;;;;;;;;;;4850495;29;20080;-76
2023/04/18 11:10:03;;;;;;;8.73;5.80;;;;;;;;;;4849739;29;20301;-78
2023/04/18 11:12:31;;;;;;;9.05;6.05;;;;;;;;;;4874973;29;20125;-80
2023/04/18 11:14:57;;;;;;;7.57;6.45;;;;;;;;;;4854779;29;20041;-78
2023/04/18 11:17:28;;;;;;;10.98;5.70;;;;;;;;;;4842345;29;20495;-77
2023/04/18 11:20:04;;;;;;;9.73;5.97;;;;;;;;;;4858777;29;20054;-75
2023/04/18 11:22:31;;;;;;;7.88;5.90;;;;;;;;;;4863236;29;20106;-77
2023/04/18 11:24:57;;;;;;;8.73;5.82;;;;;;;;;;4850119;29;20436;-77
2023/04/18 11:27:25;;;;;;;8.25;5.05;;;;;;;;;;4845747;29;20113;-77
2023/04/18 11:29:55;;;;;;;12.00;5.50;;;;;;;;;;4854715;29;20537;-77
2023/04/18 11:32:23;;;;;;;7.45;5.78;;;;;;;;;;4859129;29;20058;-80
2023/04/18 11:34:55;;;;;;;8.85;5.45;;;;;;;;;;4848262;29;20543;-81
2023/04/18 11:37:21;;;;;;;7.22;5.40;;;;;;;;;;4850411;29;20033;-78
2023/04/18 11:39:47;;;;;;;7.82;4.75;;;;;;;;;;4857060;29;20033;-80
2023/04/18 11:42:13;;;;;;;9.70;5.38;;;;;;;;;;4850727;29;20039;-79
2023/04/18 11:44:42;;;;;;;6.88;4.78;;;;;;;;;;4854380;29;20029;-81
2023/04/18 11:47:21;;;;;;;11.02;5.85;;;;;;;;;;4850306;29;20033;-80
2023/04/18 11:49:47;;;;;;;8.55;6.88;;;;;;;;;;4845927;29;20124;-79
2023/04/18 11:52:13;;;;;;;8.55;5.68;;;;;;;;;;4867758;29;20037;-83
2023/04/18 11:54:43;;;;;;;8.07;5.45;;;;;;;;;;4863862;29;20033;-83
2023/04/18 11:57:22;;;;;;;8.77;4.68;;;;;;;;;;4865342;29;20038;-78
2023/04/18 11:59:51;;;;;;;11.10;5.82;;;;;;;;;;4854312;29;20040;-77
2023/04/18 12:02:17;;;;;;;5.93;5.10;;;;;;;;;;4856566;29;20633;-76
2023/04/18 12:04:53;;;;;;;8.73;4.85;;;;;;;;;;4864385;29;20038;-77
2023/04/18 12:07:31;;;;;;;7.47;5.43;;;;;;;;;;4860885;29;20065;-75
2023/04/18 12:09:58;;;;;;;7.45;4.97;;;;;;;;;;4861592;29;20095;-75
2023/04/18 12:12:31;;;;;;;6.20;5.45;;;;;;;;;;4844946;29;20702;-82
2023/04/18 12:15:06;;;;;;;8.52;4.78;;;;;;;;;;4849264;29;20119;-84
2023/04/18 12:17:32;;;;;;;5.95;4.60;;;;;;;;;;4851197;29;20097;-81
2023/04/18 12:20:25;;;;;;;5.68;4.68;;;;;;;;;;4858877;29;20417;-82
2023/04/18 12:22:53;;;;;;;6.47;4.72;;;;;;;;;;4846470;29;20053;-80
2023/04/18 12:25:25;;;;;;;6.15;4.65;;;;;;;;;;4824839;29;20037;-76
2023/04/18 12:27:51;;;;;;;7.63;4.95;;;;;;;;;;4867142;29;20258;-78
2023/04/18 12:30:24;;;;;;;8.32;5.47;;;;;;;;;;4863560;29;20064;-79
2023/04/18 12:33:05;;;;;;;8.38;5.47;;;;;;;;;;4844109;29;20036;-80
2023/04/18 12:35:32;;;;;;;7.57;4.55;;;;;;;;;;4866455;29;20061;-76
2023/04/18 12:37:59;;;;;;;7.68;5.20;;;;;;;;;;4853163;29;20033;-75
2023/04/18 12:40:29;;;;;;;6.65;4.38;;;;;;;;;;4845087;29;20044;-80
2023/04/18 12:42:55;;;;;;;5.78;4.80;;;;;;;;;;4857654;29;20499;-79
2023/04/18 12:45:22;;;;;;;10.45;5.15;;;;;;;;;;4854686;29;20510;-80
2023/04/18 12:47:49;;;;;;;6.93;5.22;;;;;;;;;;4852593;29;20043;-81
2023/04/18 12:50:19;;;;;;;5.53;4.22;;;;;;;;;;4850503;29;20037;-81
2023/04/18 12:52:53;;;;;;;9.05;5.22;;;;;;;;;;4849429;29;20037;-81
2023/04/18 12:55:23;;;;;;;7.55;4.82;;;;;;;;;;4858850;29;20101;-81
2023/04/18 12:58:02;;;;;;;6.88;4.85;;;;;;;;;;4870853;29;20037;-81
2023/04/18 13:00:33;;;;;;;6.07;4.10;;;;;;;;;;4855870;29;20471;-81
2023/04/18 13:02:59;;;;;;;5.72;4.00;;;;;;;;;;4863049;29;20056;-81
2023/04/18 13:05:26;;;;;;;6.22;4.25;;;;;;;;;;4868023;29;20567;-81
2023/04/18 13:07:53;;;;;;;5.40;3.85;;;;;;;;;;4853774;29;20030;-78
2023/04/18 13:10:20;;;;;;;4.40;3.35;;;;;;;;;;4851440;29;20432;-78
2023/04/18 13:12:46;;;;;;;6.28;3.40;;;;;;;;;;4839948;29;20109;-77
2023/04/18 13:15:12;;;;;;;5.70;3.45;;;;;;;;;;4861830;29;20036;-76
2023/04/18 13:17:39;;;;;;;3.90;3.22;;;;;;;;;;4861593;29;20411;-77
2023/04/18 13:20:07;;;;;;;3.53;2.90;;;;;;;;;;4862055;29;20040;-79
2023/04/18 13:22:34;;;;;;;4.60;3.60;;;;;;;;;;4841954;29;20160;-78
2023/04/18 13:25:00;;;;;;;3.83;3.30;;;;;;;;;;4847952;29;20481;-79
2023/04/18 13:27:26;;;;;;;4.15;3.28;;;;;;;;;;4871764;29;20372;-78
2023/04/18 13:29:52;;;;;;;4.85;3.30;;;;;;;;;;4832214;29;20114;-77
2023/04/18 13:32:18;;;;;;;9.95;7.15;;;;;;;;;;4848341;29;20022;-77
2023/04/18 13:34:47;;;;;;;5.00;3.17;;;;;;;;;;4865989;29;20029;-78
2023/04/18 13:37:14;;;;;;;5.35;3.33;;;;;;;;;;4851220;29;20038;-77
2023/04/18 13:39:40;;;;;;;4.60;2.80;;;;;;;;;;4865101;29;20068;-76
2023/04/18 13:42:07;;;;;;;3.25;2.70;;;;;;;;;;4848660;29;20038;-74
2023/04/18 13:44:34;;;;;;;4.35;2.88;;;;;;;;;;4850342;29;20046;-78
2023/04/18 13:47:01;;;;;;;3.95;3.08;;;;;;;;;;4850552;29;20045;-79
2023/04/18 13:49:27;;;;;;;8.60;3.20;;;;;;;;;;4845603;29;20036;-79
2023/04/18 13:51:55;;;;;;;6.35;3.08;;;;;;;;;;4856259;29;20030;-79
2023/04/18 13:54:22;;;;;;;5.30;3.45;;;;;;;;;;4838946;29;20125;-76
2023/04/18 13:56:48;;;;;;;5.63;3.28;;;;;;;;;;4857115;29;20044;-81
2023/04/18 14:08:44;;;;;;;7.63;3.28;;;;;;;;;;4846948;29;20032;-89
2023/04/18 14:11:10;;;;;;;5.05;3.10;;;;;;;;;;4857081;29;20503;-79
2023/04/18 14:13:36;;;;;;;11.40;7.22;;;;;;;;;;4848460;29;20033;-81
2023/04/18 14:16:03;;;;;;;9.60;6.57;;;;;;;;;;4851532;29;20047;-79
2023/04/18 14:18:29;;;;;;;5.53;3.30;;;;;;;;;;4874525;29;20044;-79
2023/04/18 14:20:55;;;;;;;3.50;2.95;;;;;;;;;;4847585;29;20518;-83
2023/04/18 14:23:21;;;;;;;3.60;2.90;;;;;;;;;;4831029;29;20424;-75
2023/04/18 14:25:47;;;;;;;4.85;3.35;;;;;;;;;;4861639;29;20037;-77
2023/04/18 14:28:14;;;;;;;3.70;2.95;;;;;;;;;;4844447;29;20038;-79
2023/04/18 14:30:40;;;;;;;5.45;3.00;;;;;;;;;;4849948;29;20030;-81
2023/04/18 14:33:08;;;;;;;7.35;3.53;;;;;;;;;;4848375;29;20038;-82
2023/04/18 14:35:34;;;;;;;4.35;2.72;;;;;;;;;;4852277;29;20503;-83
2023/04/18 14:38:00;;;;;;;5.75;3.10;;;;;;;;;;4842340;29;20093;-77
2023/04/18 14:40:26;;;;;;;4.28;3.05;;;;;;;;;;4861943;29;20053;-76
2023/04/18 14:42:53;;;;;;;10.02;3.88;;;;;;;;;;4863301;29;20025;-77
2023/04/18 14:45:19;;;;;;;4.38;3.40;;;;;;;;;;4850460;29;20089;-78
2023/04/18 14:47:45;;;;;;;3.08;2.78;;;;;;;;;;4864256;29;20140;-77
2023/04/18 14:50:11;;;;;;;4.93;2.80;;;;;;;;;;4851047;29;20034;-82
2023/04/18 14:52:39;;;;;;;5.55;3.63;;;;;;;;;;4849739;29;20488;-79
2023/04/18 14:58:32;;;;;;;3.72;3.38;;;;;;;;;;4853039;29;20141;-79
2023/04/18 15:00:58;;;;;;;5.90;3.60;;;;;;;;;;4842942;29;20041;-78
2023/04/18 15:03:24;;;;;;;4.20;3.13;;;;;;;;;;4852992;29;20054;-76
2023/04/18 15:05:51;;;;;;;4.55;3.65;;;;;;;;;;4850160;29;20033;-78
2023/04/18 15:08:18;;;;;;;4.55;3.40;;;;;;;;;;4844159;29;20038;-79
2023/04/18 15:10:45;;;;;;;5.78;4.38;;;;;;;;;;4867855;29;20029;-79
2023/04/18 15:13:11;;;;;;;7.72;4.10;;;;;;;;;;4865775;29;20122;-78
2023/04/18 15:15:38;;;;;;;7.00;5.00;;;;;;;;;;4853453;29;20173;-77
2023/04/18 15:18:04;;;;;;;15.20;9.90;;;;;;;;;;4834512;29;20080;-78
2023/04/18 15:20:31;;;;;;;5.10;3.90;;;;;;;;;;4848919;29;20033;-78
2023/04/18 15:22:57;;;;;;;7.80;4.72;;;;;;;;;;4849881;29;20148;-78
2023/04/18 15:25:24;;;;;;;4.50;3.60;;;;;;;;;;4851353;29;20178;-73
2023/04/18 15:27:51;;;;;;;6.13;4.82;;;;;;;;;;4848999;29;20548;-74
2023/04/18 15:30:17;;;;;;;6.80;4.47;;;;;;;;;;4869973;29;20030;-77
2023/04/18 15:32:44;;;;;;;8.85;4.75;;;;;;;;;;4866384;29;20034;-73
2023/04/18 15:35:11;;;;;;;9.80;5.00;;;;;;;;;;4850986;29;20029;-75
2023/04/18 15:37:37;;;;;;;6.15;4.72;;;;;;;;;;4855237;29;20124;-75
2023/04/18 15:40:05;;;;;;;7.63;4.85;;;;;;;;;;4848061;29;20034;-77
2023/04/18 15:42:32;;;;;;;7.05;5.10;;;;;;;;;;4859577;29;20080;-75
2023/04/18 15:44:58;;;;;;;9.85;5.55;;;;;;;;;;4849797;29;20501;-77
2023/04/18 15:47:24;;;;;;;6.63;4.95;;;;;;;;;;4872562;29;20487;-77
2023/04/18 15:49:50;;;;;;;8.32;4.55;;;;;;;;;;4853411;29;20038;-76
2023/04/18 15:52:16;;;;;;;7.03;4.53;;;;;;;;;;4839055;29;20216;-78
2023/04/18 15:54:42;;;;;;;6.22;4.40;;;;;;;;;;4870094;29;20520;-76
2023/04/18 15:57:09;;;;;;;6.55;4.63;;;;;;;;;;4852912;29;20041;-76
2023/04/18 15:59:36;;;;;;;6.13;4.47;;;;;;;;;;4841814;29;20129;-77
2023/04/18 16:02:02;;;;;;;6.55;4.95;;;;;;;;;;4854658;29;20577;-77
2023/04/18 16:04:28;;;;;;;7.82;4.50;;;;;;;;;;4862021;29;20037;-78
2023/04/18 16:06:54;;;;;;;6.38;5.00;;;;;;;;;;4836389;29;20069;-78
2023/04/18 16:09:21;;;;;;;9.30;5.45;;;;;;;;;;4855157;29;20029;-77
2023/04/18 16:11:47;;;;;;;9.80;5.03;;;;;;;;;;4854927;29;20511;-78
2023/04/18 16:14:13;;;;;;;7.50;5.32;;;;;;;;;;4856369;29;20077;-77
2023/04/18 16:16:39;;;;;;;8.73;5.38;;;;;;;;;;4854074;29;20034;-76
2023/04/18 16:19:05;;;;;;;7.88;5.35;;;;;;;;;;4846549;29;20495;-73
2023/04/18 16:21:31;;;;;;;7.72;5.55;;;;;;;;;;4843545;29;20041;-75